Time;durP1;ratioP1;P1;durP2;ratioP2;P2;SDS_P1;SDS_P2;PMS_P1;PMS_P2;Temp;Humidity;BMP_temperature;BMP_pressure;BME280_temperature;BME280_humidity;BME280_pressure;Samples;Min_cycle;Max_cycle;Signal;HPM_P1;HPM_P2
2023/08/11 00:00:32;;;;;;;3.60;2.20;;;16.90;99.90;;;;;;5066910;28;20044;-67
2023/08/11 00:02:58;;;;;;;10.05;2.67;;;16.90;99.90;;;;;;5065139;28;20080;-67
2023/08/11 00:05:24;;;;;;;12.18;3.10;;;16.80;99.90;;;;;;5063318;28;20388;-67
2023/08/11 00:07:50;;;;;;;2.85;2.28;;;16.90;99.90;;;;;;5062062;28;20051;-67
2023/08/11 00:10:20;;;;;;;5.70;2.13;;;16.90;99.90;;;;;;5057900;28;20049;-67
2023/08/11 00:12:46;;;;;;;5.55;2.42;;;16.90;99.90;;;;;;5064613;28;20149;-67
2023/08/11 00:15:12;;;;;;;3.45;2.53;;;16.80;99.90;;;;;;5067491;28;20041;-67
2023/08/11 00:17:39;;;;;;;5.38;2.75;;;16.90;99.90;;;;;;5067674;28;20750;-67
2023/08/11 00:20:06;;;;;;;8.68;2.50;;;16.80;99.90;;;;;;5052962;28;20048;-67
2023/08/11 00:22:32;;;;;;;5.78;2.38;;;16.80;99.90;;;;;;5067761;28;20045;-67
2023/08/11 00:24:58;;;;;;;4.35;2.35;;;16.80;99.90;;;;;;5066512;28;20067;-67
2023/08/11 00:27:24;;;;;;;3.60;2.25;;;16.80;99.90;;;;;;5066125;28;20433;-67
2023/08/11 00:29:50;;;;;;;6.38;3.20;;;16.80;99.90;;;;;;5066581;28;20041;-67
2023/08/11 00:32:15;;;;;;;2.95;1.98;;;16.80;99.90;;;;;;5067639;28;20051;-67
2023/08/11 00:34:41;;;;;;;3.63;2.17;;;16.80;99.90;;;;;;5065835;28;20406;-67
2023/08/11 00:37:07;;;;;;;3.40;2.20;;;16.80;99.90;;;;;;5051225;28;20044;-67
2023/08/11 00:39:33;;;;;;;2.50;2.30;;;16.80;99.90;;;;;;5068253;28;20142;-67
2023/08/11 00:41:59;;;;;;;4.32;2.35;;;16.80;99.90;;;;;;5065191;28;20474;-67
2023/08/11 00:44:26;;;;;;;3.28;2.47;;;16.80;99.90;;;;;;5065829;28;20138;-67
2023/08/11 00:46:52;;;;;;;5.13;2.75;;;16.80;99.90;;;;;;5066430;28;20045;-67
2023/08/11 00:49:18;;;;;;;4.75;2.10;;;16.80;99.90;;;;;;5065872;28;20517;-67
2023/08/11 00:51:44;;;;;;;3.00;2.30;;;16.80;99.90;;;;;;5067013;28;20040;-67
2023/08/11 00:54:11;;;;;;;3.70;2.42;;;16.80;99.90;;;;;;5064891;28;20044;-67
2023/08/11 00:56:43;;;;;;;2.30;2.10;;;16.80;99.90;;;;;;5068860;28;20033;-67
2023/08/11 00:59:11;;;;;;;7.03;2.55;;;16.80;99.90;;;;;;5070104;28;20410;-67
2023/08/11 01:01:37;;;;;;;3.97;2.80;;;16.80;99.90;;;;;;5061792;28;20053;-67
2023/08/11 01:04:04;;;;;;;5.60;2.63;;;16.80;99.90;;;;;;5074348;28;20070;-67
2023/08/11 01:06:42;;;;;;;6.18;2.72;;;16.80;99.90;;;;;;5073814;28;20136;-67
2023/08/11 01:09:13;;;;;;;5.95;2.60;;;16.80;99.90;;;;;;5069817;28;20040;-67
2023/08/11 01:11:57;;;;;;;5.55;2.50;;;16.80;99.90;;;;;;5066470;28;20063;-67
2023/08/11 01:14:56;;;;;;;7.43;2.88;;;16.80;99.90;;;;;;5067070;28;20036;-67
2023/08/11 01:17:23;;;;;;;4.72;2.85;;;16.80;99.90;;;;;;5038518;28;20056;-67
2023/08/11 01:19:49;;;;;;;6.80;2.53;;;16.80;99.90;;;;;;5067271;28;20047;-67
2023/08/11 01:22:18;;;;;;;4.32;2.78;;;16.70;99.90;;;;;;5067481;28;20040;-67
2023/08/11 01:24:45;;;;;;;2.70;2.50;;;16.70;99.90;;;;;;5065945;28;20044;-67
2023/08/11 01:27:12;;;;;;;3.78;2.40;;;16.70;99.90;;;;;;5078780;28;20080;-67
2023/08/11 01:29:38;;;;;;;5.55;2.55;;;16.60;99.90;;;;;;5067461;28;20198;-67
2023/08/11 01:32:04;;;;;;;7.80;2.58;;;16.50;99.90;;;;;;5068048;28;20403;-67
2023/08/11 01:34:30;;;;;;;2.88;2.60;;;16.50;99.90;;;;;;5065544;28;20076;-67
2023/08/11 01:37:00;;;;;;;3.78;2.45;;;16.40;99.90;;;;;;5067504;28;20490;-67
2023/08/11 01:39:30;;;;;;;6.70;3.35;;;16.40;99.90;;;;;;5066487;28;20049;-67
2023/08/11 01:41:57;;;;;;;5.50;2.30;;;16.30;99.90;;;;;;5067109;28;20040;-67
2023/08/11 01:44:24;;;;;;;2.42;2.22;;;16.30;99.90;;;;;;5052387;28;20150;-67
2023/08/11 01:46:52;;;;;;;3.10;2.30;;;16.20;99.90;;;;;;5069198;28;20475;-67
2023/08/11 01:49:19;;;;;;;5.30;3.00;;;16.20;99.90;;;;;;5070778;28;20041;-67
2023/08/11 01:51:44;;;;;;;4.00;2.55;;;16.10;99.90;;;;;;5069633;28;20055;-67
2023/08/11 01:54:10;;;;;;;4.90;2.58;;;16.00;99.90;;;;;;5071394;28;20048;-67
2023/08/11 01:56:37;;;;;;;6.13;2.78;;;15.90;99.90;;;;;;5070067;28;20399;-67
2023/08/11 01:59:10;;;;;;;4.68;3.00;;;15.90;99.90;;;;;;5070434;28;20040;-67
2023/08/11 02:01:37;;;;;;;4.95;2.53;;;15.80;99.90;;;;;;5071222;28;20471;-67
2023/08/11 02:04:04;;;;;;;5.93;2.97;;;15.80;99.90;;;;;;5068544;28;20132;-67
2023/08/11 02:06:30;;;;;;;6.82;2.88;;;15.70;99.90;;;;;;5070381;28;20105;-67
2023/08/11 02:08:57;;;;;;;5.78;2.50;;;15.70;99.90;;;;;;5067548;28;20042;-67
2023/08/11 02:11:23;;;;;;;9.70;2.50;;;15.70;99.90;;;;;;5057784;28;20401;-67
2023/08/11 02:13:48;;;;;;;3.97;2.22;;;15.60;99.90;;;;;;5068214;28;20044;-67
2023/08/11 02:16:14;;;;;;;3.08;2.53;;;15.70;99.90;;;;;;5069863;28;20076;-67
2023/08/11 02:18:40;;;;;;;5.05;2.47;;;15.60;99.90;;;;;;5068656;28;20091;-66
2023/08/11 02:21:07;;;;;;;5.45;2.60;;;15.60;99.90;;;;;;5069018;28;20127;-67
2023/08/11 02:23:33;;;;;;;3.65;2.70;;;15.50;99.90;;;;;;5070173;28;20102;-67
2023/08/11 02:26:00;;;;;;;2.30;2.20;;;15.50;99.90;;;;;;5068783;28;20131;-67
2023/08/11 02:28:26;;;;;;;3.08;2.70;;;15.50;99.90;;;;;;5069787;28;20055;-67
2023/08/11 02:30:52;;;;;;;4.70;2.95;;;15.40;99.90;;;;;;5067882;28;20036;-67
2023/08/11 02:33:18;;;;;;;5.53;2.67;;;15.40;99.90;;;;;;5070301;28;20052;-67
2023/08/11 02:35:45;;;;;;;4.60;2.63;;;15.30;99.90;;;;;;5069624;28;20064;-67
2023/08/11 02:38:13;;;;;;;3.03;2.70;;;15.30;99.90;;;;;;5069733;28;20438;-67
2023/08/11 02:40:39;;;;;;;2.85;2.65;;;15.20;99.90;;;;;;5069833;28;20056;-67
2023/08/11 02:43:07;;;;;;;4.00;2.88;;;15.20;99.90;;;;;;5068334;28;20094;-67
2023/08/11 02:45:32;;;;;;;8.07;3.10;;;15.20;99.90;;;;;;5070194;28;20556;-67
2023/08/11 02:47:58;;;;;;;5.72;3.00;;;15.20;99.90;;;;;;5068418;28;20052;-67
2023/08/11 02:50:24;;;;;;;4.72;3.13;;;15.20;99.90;;;;;;5067549;28;20470;-67
2023/08/11 02:52:50;;;;;;;4.00;2.78;;;15.10;99.90;;;;;;5071484;28;20040;-67
2023/08/11 02:55:15;;;;;;;4.35;3.30;;;15.10;99.90;;;;;;5073238;28;20109;-67
2023/08/11 02:57:41;;;;;;;4.15;3.70;;;15.10;99.90;;;;;;5070295;28;20043;-67
2023/08/11 03:00:14;;;;;;;4.57;3.63;;;15.10;99.90;;;;;;5065862;28;20044;-67
2023/08/11 03:02:47;;;;;;;5.18;3.40;;;15.10;99.90;;;;;;5051792;28;20056;-67
2023/08/11 03:05:14;;;;;;;4.55;3.63;;;15.10;99.90;;;;;;5062994;28;20068;-67
2023/08/11 03:07:41;;;;;;;8.57;4.10;;;15.10;99.90;;;;;;5065745;28;20033;-66
2023/08/11 03:10:09;;;;;;;4.97;3.45;;;15.00;99.90;;;;;;5060433;28;20557;-66
2023/08/11 03:12:36;;;;;;;4.35;3.95;;;15.10;99.90;;;;;;5065122;28;20048;-66
2023/08/11 03:15:04;;;;;;;6.85;3.97;;;15.00;99.90;;;;;;5069904;28;20394;-66
2023/08/11 03:17:31;;;;;;;4.05;3.65;;;15.00;99.90;;;;;;5065794;28;20119;-66
2023/08/11 03:19:56;;;;;;;3.92;3.63;;;15.00;99.90;;;;;;5069670;28;20045;-66
2023/08/11 03:22:22;;;;;;;7.65;4.00;;;15.00;99.90;;;;;;5071404;28;20052;-67
2023/08/11 03:24:48;;;;;;;5.53;4.10;;;15.00;99.90;;;;;;5068789;28;20040;-66
2023/08/11 03:27:14;;;;;;;5.10;4.40;;;15.00;99.90;;;;;;5067944;28;20062;-66
2023/08/11 03:29:40;;;;;;;5.38;4.30;;;15.00;99.90;;;;;;5083924;28;20457;-66
2023/08/11 03:32:06;;;;;;;5.13;4.20;;;15.00;99.90;;;;;;5069312;28;20109;-66
2023/08/11 03:34:32;;;;;;;4.78;4.22;;;14.90;99.90;;;;;;5067031;28;20478;-66
2023/08/11 03:36:58;;;;;;;12.77;4.40;;;14.90;99.90;;;;;;5069362;28;20119;-66
2023/08/11 03:39:23;;;;;;;6.72;4.65;;;14.90;99.90;;;;;;5067495;28;20424;-66
2023/08/11 03:41:51;;;;;;;7.88;4.70;;;14.90;99.90;;;;;;5069013;28;20041;-88
2023/08/11 03:44:16;;;;;;;6.40;5.10;;;14.90;99.90;;;;;;5066822;28;20119;-66
2023/08/11 03:46:42;;;;;;;6.50;5.38;;;14.80;99.90;;;;;;5068075;28;20116;-66
2023/08/11 03:49:08;;;;;;;8.15;5.00;;;14.80;99.90;;;;;;5068034;28;20079;-66
2023/08/11 03:51:33;;;;;;;8.40;5.38;;;14.80;99.90;;;;;;5067494;28;20044;-66
2023/08/11 03:54:02;;;;;;;5.60;5.15;;;14.80;99.90;;;;;;5068584;28;20045;-66
2023/08/11 03:56:29;;;;;;;7.07;5.07;;;14.80;99.90;;;;;;5066807;28;20146;-66
2023/08/11 03:58:54;;;;;;;7.70;4.90;;;14.80;99.90;;;;;;5067349;28;20054;-66
2023/08/11 04:01:20;;;;;;;9.68;5.10;;;14.70;99.90;;;;;;5067254;28;20482;-66
2023/08/11 04:03:46;;;;;;;7.32;5.03;;;14.70;99.90;;;;;;5067929;28;20463;-66
2023/08/11 04:06:12;;;;;;;7.65;5.03;;;14.70;99.90;;;;;;5066457;28;20047;-67
2023/08/11 04:08:38;;;;;;;5.28;4.78;;;14.70;99.90;;;;;;5066010;28;20044;-66
2023/08/11 04:11:03;;;;;;;12.35;6.38;;;14.70;99.90;;;;;;5052531;28;20063;-66
2023/08/11 04:13:29;;;;;;;5.93;5.00;;;14.60;99.90;;;;;;5066695;28;20036;-66
2023/08/11 04:15:55;;;;;;;6.75;4.60;;;14.60;99.90;;;;;;5068159;28;20044;-66
2023/08/11 04:18:20;;;;;;;7.57;4.78;;;14.60;99.90;;;;;;5066363;28;20044;-66
2023/08/11 04:20:47;;;;;;;8.23;5.05;;;14.60;99.90;;;;;;5067857;28;20327;-66
2023/08/11 04:23:13;;;;;;;5.72;4.68;;;14.60;99.90;;;;;;5066745;28;20067;-66
2023/08/11 04:25:39;;;;;;;5.40;4.90;;;14.60;99.90;;;;;;5067880;28;20084;-66
2023/08/11 04:28:05;;;;;;;9.55;5.18;;;14.60;99.90;;;;;;5067380;28;20044;-66
2023/08/11 04:30:32;;;;;;;9.77;4.95;;;14.60;99.90;;;;;;5067279;28;20505;-66
2023/08/11 04:32:58;;;;;;;6.20;5.22;;;14.60;99.90;;;;;;5068114;28;20048;-66
2023/08/11 04:35:25;;;;;;;5.25;4.82;;;14.60;99.90;;;;;;5066605;28;20036;-66
2023/08/11 04:37:50;;;;;;;9.15;4.60;;;14.60;99.90;;;;;;5067337;28;20466;-66
2023/08/11 04:40:17;;;;;;;4.80;4.40;;;14.70;99.90;;;;;;5066212;28;20048;-66
2023/08/11 04:42:44;;;;;;;5.70;5.03;;;14.70;99.90;;;;;;5066955;28;20055;-66
2023/08/11 04:45:10;;;;;;;5.18;4.68;;;14.70;99.90;;;;;;5062416;28;20520;-66
2023/08/11 04:47:36;;;;;;;7.35;4.47;;;14.70;99.90;;;;;;5054252;28;20076;-66
2023/08/11 04:50:02;;;;;;;7.57;4.82;;;14.70;99.90;;;;;;5061486;28;20094;-66
2023/08/11 04:52:28;;;;;;;5.43;4.10;;;14.80;99.90;;;;;;5052237;28;20497;-66
2023/08/11 04:54:54;;;;;;;8.93;5.30;;;14.70;99.90;;;;;;5057292;28;20088;-66
2023/08/11 04:57:20;;;;;;;5.88;4.85;;;14.80;99.90;;;;;;5056753;28;20084;-66
2023/08/11 04:59:46;;;;;;;11.20;5.18;;;14.80;99.90;;;;;;5050518;28;20049;-67
2023/08/11 05:02:12;;;;;;;5.65;4.65;;;14.90;99.90;;;;;;5066549;28;20055;-66
2023/08/11 05:04:38;;;;;;;5.68;4.82;;;14.90;99.90;;;;;;5052837;28;20087;-66
2023/08/11 05:07:06;;;;;;;6.18;4.93;;;14.90;99.90;;;;;;5060269;28;20095;-66
2023/08/11 05:09:35;;;;;;;5.80;5.00;;;15.10;99.90;;;;;;5058268;28;20040;-66
2023/08/11 05:12:01;;;;;;;6.80;4.87;;;15.10;99.90;;;;;;5067136;28;20044;-66
2023/08/11 05:14:27;;;;;;;8.63;4.25;;;15.10;99.90;;;;;;5064387;28;20044;-66
2023/08/11 05:16:53;;;;;;;4.90;4.50;;;15.10;99.90;;;;;;5069905;28;20040;-66
2023/08/11 05:19:18;;;;;;;5.78;4.75;;;15.10;99.90;;;;;;5070212;28;20423;-66
2023/08/11 05:21:44;;;;;;;10.40;4.72;;;15.20;99.90;;;;;;5079821;28;20123;-66
2023/08/11 05:24:10;;;;;;;6.82;4.70;;;15.30;99.90;;;;;;5075937;28;20105;-66
2023/08/11 05:26:36;;;;;;;5.28;4.78;;;15.30;99.90;;;;;;5070822;28;20052;-66
2023/08/11 05:29:02;;;;;;;5.43;4.57;;;15.30;99.90;;;;;;5071199;28;20055;-66
2023/08/11 05:31:28;;;;;;;8.30;4.82;;;15.40;99.90;;;;;;5069887;28;20041;-66
2023/08/11 05:33:55;;;;;;;10.77;5.45;;;15.50;99.90;;;;;;5071050;28;20490;-70
2023/08/11 05:36:21;;;;;;;15.73;5.80;;;15.50;99.90;;;;;;5069838;28;20044;-66
2023/08/11 05:38:46;;;;;;;5.57;4.10;;;15.60;99.90;;;;;;5071280;28;20298;-66
2023/08/11 05:41:12;;;;;;;6.05;4.38;;;15.70;99.90;;;;;;5069486;28;20048;-66
2023/08/11 05:43:38;;;;;;;6.05;4.13;;;15.80;99.90;;;;;;5069286;28;20079;-66
2023/08/11 05:46:07;;;;;;;8.20;4.63;;;15.90;99.90;;;;;;5069395;28;20090;-66
2023/08/11 05:48:33;;;;;;;8.37;4.93;;;15.90;99.90;;;;;;5068804;28;20653;-66
2023/08/11 05:50:59;;;;;;;5.95;4.25;;;16.00;99.90;;;;;;5070515;28;20083;-67
2023/08/11 05:53:25;;;;;;;5.85;4.40;;;16.10;99.90;;;;;;5069950;28;20091;-66
2023/08/11 05:55:51;;;;;;;6.15;4.20;;;16.20;99.90;;;;;;5070634;28;20379;-66
2023/08/11 05:58:16;;;;;;;5.43;4.72;;;16.30;99.90;;;;;;5084697;28;20040;-66
2023/08/11 06:00:42;;;;;;;7.25;4.35;;;16.30;99.90;;;;;;5070606;28;20126;-66
2023/08/11 06:03:08;;;;;;;5.13;4.35;;;16.40;99.90;;;;;;5058722;28;20096;-66
2023/08/11 06:05:33;;;;;;;4.75;3.90;;;16.50;99.90;;;;;;5060901;28;20045;-66
2023/08/11 06:07:59;;;;;;;7.15;4.00;;;16.50;99.90;;;;;;5060210;28;20052;-65
2023/08/11 06:10:26;;;;;;;4.40;3.38;;;16.60;99.90;;;;;;5054395;28;20363;-66
2023/08/11 06:12:52;;;;;;;9.73;3.97;;;16.70;99.90;;;;;;5069296;28;20132;-66
2023/08/11 06:15:18;;;;;;;10.18;4.07;;;16.80;99.90;;;;;;5074546;28;20040;-66
2023/08/11 06:17:49;;;;;;;5.22;3.50;;;16.90;99.90;;;;;;5079646;28;20089;-65
2023/08/11 06:20:15;;;;;;;7.53;3.38;;;16.90;99.90;;;;;;5078930;28;20036;-66
2023/08/11 06:22:41;;;;;;;5.18;3.60;;;17.00;99.90;;;;;;5075158;28;20462;-66
2023/08/11 06:25:07;;;;;;;3.92;3.38;;;17.10;99.90;;;;;;5079752;28;20135;-66
2023/08/11 06:27:33;;;;;;;4.25;3.00;;;17.10;99.90;;;;;;5070474;28;20059;-65
2023/08/11 06:29:59;;;;;;;3.83;2.50;;;17.20;99.90;;;;;;5081750;28;20056;-66
2023/08/11 06:32:24;;;;;;;5.55;2.88;;;17.40;99.90;;;;;;5076022;28;20049;-66
2023/08/11 06:34:50;;;;;;;10.13;3.33;;;17.40;99.90;;;;;;5072770;28;20067;-66
2023/08/11 06:37:16;;;;;;;9.75;3.70;;;17.50;99.90;;;;;;5077797;28;20323;-66
2023/08/11 06:39:42;;;;;;;6.85;3.30;;;17.60;99.90;;;;;;5074837;28;20402;-66
2023/08/11 06:42:08;;;;;;;10.45;3.28;;;17.70;99.90;;;;;;5080146;28;20036;-66
2023/08/11 06:44:33;;;;;;;6.40;2.92;;;17.80;99.90;;;;;;5070408;28;20055;-66
2023/08/11 06:46:59;;;;;;;8.25;2.50;;;17.90;99.90;;;;;;5068566;28;20101;-66
2023/08/11 06:49:25;;;;;;;4.70;2.63;;;18.10;99.90;;;;;;5068964;28;20398;-66
2023/08/11 06:51:50;;;;;;;3.42;2.35;;;18.20;99.90;;;;;;5069635;28;20051;-66
2023/08/11 06:54:16;;;;;;;3.97;2.15;;;18.20;99.90;;;;;;5068768;28;20101;-66
2023/08/11 06:56:42;;;;;;;2.75;2.10;;;18.40;99.90;;;;;;5071821;28;20044;-66
2023/08/11 06:59:07;;;;;;;3.55;2.08;;;18.50;99.90;;;;;;5061736;28;20044;-66
2023/08/11 07:01:33;;;;;;;3.08;2.58;;;18.60;99.90;;;;;;5068770;28;20051;-66
2023/08/11 07:03:59;;;;;;;6.78;2.90;;;18.80;99.90;;;;;;5071837;28;20044;-67
2023/08/11 07:06:24;;;;;;;7.15;2.50;;;19.00;99.90;;;;;;5060539;28;20041;-66
2023/08/11 07:08:50;;;;;;;2.10;1.90;;;19.20;99.90;;;;;;5069826;28;20055;-66
2023/08/11 07:11:16;;;;;;;4.10;2.10;;;19.40;99.90;;;;;;5053910;28;20052;-66
2023/08/11 07:13:42;;;;;;;3.47;2.15;;;19.60;99.90;;;;;;5068965;28;20124;-66
2023/08/11 07:16:08;;;;;;;2.95;1.90;;;19.70;99.90;;;;;;5067258;28;20076;-66
2023/08/11 07:18:33;;;;;;;2.35;1.80;;;20.00;99.90;;;;;;5069313;28;20119;-66
2023/08/11 07:20:59;;;;;;;2.90;2.08;;;20.20;99.90;;;;;;5069434;28;20052;-66
2023/08/11 07:23:25;;;;;;;2.80;1.92;;;20.50;99.90;;;;;;5073387;28;20041;-66
2023/08/11 07:25:50;;;;;;;2.90;1.95;;;20.70;99.90;;;;;;5076297;28;20182;-66
2023/08/11 07:28:16;;;;;;;2.38;2.17;;;20.90;99.90;;;;;;5077874;28;20564;-66
2023/08/11 07:30:42;;;;;;;4.05;2.00;;;21.20;99.90;;;;;;5080056;28;20126;-66
2023/08/11 07:33:07;;;;;;;3.08;1.65;;;21.50;99.90;;;;;;5059615;28;20123;-67
2023/08/11 07:35:33;;;;;;;3.08;2.03;;;21.70;99.40;;;;;;5070725;28;20036;-67
2023/08/11 07:37:59;;;;;;;2.30;1.80;;;22.00;99.90;;;;;;5068552;28;20110;-71
2023/08/11 07:40:25;;;;;;;1.88;1.65;;;22.30;95.50;;;;;;5049404;28;20041;-66
2023/08/11 07:42:50;;;;;;;3.03;1.67;;;22.60;90.50;;;;;;5050779;28;20059;-66
2023/08/11 07:45:16;;;;;;;5.05;1.70;;;22.80;90.00;;;;;;5063077;28;20045;-66
2023/08/11 07:47:42;;;;;;;5.68;1.55;;;23.10;64.20;;;;;;5050621;28;20033;-66
2023/08/11 07:50:08;;;;;;;3.53;1.67;;;23.30;51.20;;;;;;5051435;28;20044;-66
2023/08/11 07:52:34;;;;;;;3.70;1.60;;;23.50;28.90;;;;;;5050732;28;20086;-66
2023/08/11 07:54:59;;;;;;;2.30;1.30;;;23.60;24.30;;;;;;5054456;28;20448;-66
2023/08/11 07:57:25;;;;;;;3.25;1.67;;;23.70;18.70;;;;;;5050674;28;20041;-66
2023/08/11 07:59:51;;;;;;;2.80;1.15;;;23.90;15.60;;;;;;5048976;28;20057;-66
2023/08/11 08:02:17;;;;;;;2.83;1.60;;;24.00;12.90;;;;;;5059147;28;20510;-66
2023/08/11 08:04:43;;;;;;;4.95;1.90;;;24.20;13.00;;;;;;5050415;28;20049;-66
2023/08/11 08:07:10;;;;;;;3.50;1.38;;;24.30;8.20;;;;;;5050469;28;20501;-66
2023/08/11 08:09:36;;;;;;;2.80;1.38;;;24.50;1.00;;;;;;5022090;28;20060;-66
2023/08/11 08:12:01;;;;;;;1.95;1.75;;;24.50;5.40;;;;;;5058786;28;20487;-66
2023/08/11 08:14:28;;;;;;;2.42;2.10;;;24.60;1.00;;;;;;5072061;28;20080;-66
2023/08/11 08:16:53;;;;;;;5.22;1.75;;;24.70;1.00;;;;;;5082989;28;20561;-66
2023/08/11 08:19:20;;;;;;;1.95;1.58;;;24.80;1.00;;;;;;5071377;28;20116;-66
2023/08/11 08:21:46;;;;;;;3.42;2.00;;;24.90;1.00;;;;;;5077560;28;20043;-66
2023/08/11 08:24:14;;;;;;;2.30;2.10;;;25.00;1.00;;;;;;5066513;28;20507;-67
2023/08/11 08:26:41;;;;;;;2.90;2.42;;;25.10;1.00;;;;;;5068413;28;20055;-67
2023/08/11 08:29:07;;;;;;;3.75;2.40;;;25.20;1.00;;;;;;5063191;28;20048;-66
2023/08/11 08:31:33;;;;;;;3.72;2.22;;;25.30;1.00;;;;;;5076963;28;20059;-66
2023/08/11 08:33:59;;;;;;;2.75;1.70;;;25.30;1.00;;;;;;5066295;28;20044;-66
2023/08/11 08:36:25;;;;;;;5.75;2.22;;;25.30;1.00;;;;;;5065342;28;20106;-66
2023/08/11 08:38:52;;;;;;;2.63;1.80;;;25.50;1.00;;;;;;5065959;28;20029;-66
2023/08/11 08:41:28;;;;;;;3.38;1.80;;;25.50;1.00;;;;;;5061273;28;20033;-66
2023/08/11 08:43:55;;;;;;;2.85;1.88;;;25.50;1.00;;;;;;5063186;28;20522;-66
2023/08/11 08:46:23;;;;;;;2.78;1.92;;;25.60;1.00;;;;;;5057926;28;20045;-66
2023/08/11 08:49:24;;;;;;;2.80;2.00;;;25.70;1.00;;;;;;5060396;28;20459;-66
2023/08/11 08:51:52;;;;;;;2.10;1.90;;;25.80;1.00;;;;;;5083826;28;20043;-66
2023/08/11 08:54:18;;;;;;;6.57;2.13;;;25.80;1.00;;;;;;5083095;28;20044;-66
2023/08/11 08:56:45;;;;;;;3.95;2.13;;;25.90;1.00;;;;;;5081359;28;20032;-67
2023/08/11 08:59:11;;;;;;;5.68;1.80;;;26.00;1.00;;;;;;5075084;28;20048;-66
2023/08/11 09:01:38;;;;;;;3.15;2.08;;;26.00;1.00;;;;;;5068109;28;20029;-67
2023/08/11 09:04:08;;;;;;;2.88;2.05;;;26.00;1.00;;;;;;5077573;28;20094;-67
2023/08/11 09:06:34;;;;;;;;;;;26.00;1.00;;;;;;5066343;28;20333;-67
2023/08/11 09:08:59;;;;;;;7.50;2.33;;;26.10;1.00;;;;;;5079622;28;19927;-66
2023/08/11 09:11:28;;;;;;;2.95;1.70;;;26.20;1.00;;;;;;5054116;28;20032;-67
2023/08/11 09:14:01;;;;;;;3.08;1.60;;;26.20;1.00;;;;;;5060223;28;20052;-67
2023/08/11 09:16:27;;;;;;;4.45;1.83;;;26.30;1.00;;;;;;5065126;28;20059;-67
2023/08/11 09:18:53;;;;;;;3.47;1.80;;;26.30;1.00;;;;;;5069518;28;20847;-67
2023/08/11 09:21:22;;;;;;;3.88;2.30;;;26.30;1.00;;;;;;5066255;28;20067;-67
2023/08/11 09:23:51;;;;;;;5.07;2.20;;;26.30;1.00;;;;;;5073914;28;20032;-67
2023/08/11 09:26:19;;;;;;;4.20;1.60;;;26.50;1.00;;;;;;5081522;28;20487;-67
2023/08/11 09:28:44;;;;;;;8.70;2.45;;;26.40;1.00;;;;;;5080234;28;20486;-67
2023/08/11 09:31:12;;;;;;;3.00;2.13;;;26.50;1.00;;;;;;5072978;28;20044;-67
2023/08/11 09:33:37;;;;;;;2.30;2.08;;;26.60;1.00;;;;;;5073349;28;20115;-66
2023/08/11 09:36:04;;;;;;;6.88;2.25;;;26.60;1.00;;;;;;5071488;28;20132;-67
2023/08/11 09:38:30;;;;;;;3.35;2.65;;;26.60;1.00;;;;;;5073244;28;20064;-67
2023/08/11 09:41:05;;;;;;;4.68;2.63;;;26.60;1.00;;;;;;5073529;28;20523;-67
2023/08/11 09:43:31;;;;;;;1.63;1.50;;;26.70;1.00;;;;;;5059723;28;20047;-67
2023/08/11 09:45:59;;;;;;;3.90;2.00;;;26.70;1.00;;;;;;5067485;28;20403;-67
2023/08/11 09:48:26;;;;;;;5.10;1.90;;;26.70;1.00;;;;;;5067405;28;20036;-67
2023/08/11 09:50:53;;;;;;;4.65;2.40;;;26.70;1.00;;;;;;5064080;28;20052;-67
2023/08/11 09:53:22;;;;;;;4.78;2.33;;;26.80;1.00;;;;;;5066395;28;20074;-67
2023/08/11 09:55:49;;;;;;;4.90;2.15;;;26.80;1.00;;;;;;5069490;28;20119;-67
2023/08/11 09:58:17;;;;;;;3.83;1.92;;;26.90;1.00;;;;;;5064831;28;20067;-67
2023/08/11 10:00:47;;;;;;;3.97;1.60;;;26.90;1.00;;;;;;5072550;28;20195;-67
2023/08/11 10:03:22;;;;;;;2.63;2.00;;;26.90;1.00;;;;;;5062369;28;20059;-68
2023/08/11 10:05:51;;;;;;;2.33;1.98;;;26.90;1.00;;;;;;5071893;28;20075;-67
2023/08/11 10:08:23;;;;;;;2.47;1.98;;;27.00;1.00;;;;;;5064382;28;20060;-67
2023/08/11 10:10:49;;;;;;;5.35;2.10;;;27.10;1.00;;;;;;5052767;28;20052;-67
2023/08/11 10:13:19;;;;;;;4.35;2.25;;;27.10;1.00;;;;;;5068946;28;20047;-67
2023/08/11 10:15:45;;;;;;;2.15;1.73;;;27.20;1.00;;;;;;5060871;28;20142;-68
2023/08/11 10:18:12;;;;;;;3.80;1.77;;;27.20;1.00;;;;;;5053519;28;20041;-66
2023/08/11 10:20:38;;;;;;;3.35;2.33;;;27.20;1.00;;;;;;5062620;28;20052;-67
2023/08/11 10:23:05;;;;;;;4.32;2.03;;;27.20;1.00;;;;;;5070761;28;20401;-67
2023/08/11 10:25:31;;;;;;;1.65;1.55;;;27.20;1.00;;;;;;5068026;28;20052;-67
2023/08/11 10:27:58;;;;;;;2.78;1.73;;;27.30;1.00;;;;;;5052550;28;20412;-67
2023/08/11 10:30:25;;;;;;;2.42;1.40;;;27.30;1.00;;;;;;5068658;28;20544;-67
2023/08/11 10:32:56;;;;;;;3.83;1.52;;;27.30;1.00;;;;;;5069940;28;20117;-67
2023/08/11 10:35:32;;;;;;;3.47;1.50;;;27.30;1.00;;;;;;5064619;28;20040;-67
2023/08/11 10:37:59;;;;;;;2.58;1.33;;;27.40;1.00;;;;;;5070970;28;20483;-67
2023/08/11 10:40:35;;;;;;;2.38;1.40;;;27.40;1.00;;;;;;5082307;28;20509;-67
2023/08/11 10:43:02;;;;;;;3.15;1.70;;;27.50;1.00;;;;;;5081705;28;20055;-67
2023/08/11 10:45:32;;;;;;;2.05;1.35;;;27.50;1.00;;;;;;5084698;28;20040;-67
2023/08/11 10:47:58;;;;;;;2.70;1.08;;;27.60;1.00;;;;;;5077337;28;20041;-67
2023/08/11 10:50:26;;;;;;;4.57;2.00;;;27.50;1.00;;;;;;5083764;28;20232;-67
2023/08/11 10:53:17;;;;;;;2.05;1.20;;;27.50;1.00;;;;;;5081097;28;20035;-68
2023/08/11 10:56:02;;;;;;;1.80;1.10;;;27.50;1.00;;;;;;5067179;28;20367;-67
2023/08/11 10:58:32;;;;;;;2.83;1.58;;;27.50;1.00;;;;;;5073837;28;20461;-67
2023/08/11 11:01:01;;;;;;;1.60;1.50;;;27.50;1.00;;;;;;5070867;28;20383;-68
2023/08/11 11:03:27;;;;;;;1.95;1.20;;;27.60;1.00;;;;;;5077325;28;20067;-68
2023/08/11 11:05:53;;;;;;;2.17;1.50;;;27.60;1.00;;;;;;5073765;28;20044;-67
2023/08/11 11:08:19;;;;;;;4.57;1.33;;;27.50;1.00;;;;;;5062501;28;20053;-67
2023/08/11 11:10:45;;;;;;;4.35;1.48;;;27.60;1.00;;;;;;5065661;28;20102;-67
2023/08/11 11:13:10;;;;;;;4.05;2.08;;;27.60;1.00;;;;;;5068514;28;20054;-68
2023/08/11 11:15:36;;;;;;;3.63;1.60;;;27.60;1.00;;;;;;5069091;28;20549;-67
2023/08/11 11:18:02;;;;;;;2.05;1.42;;;27.60;1.00;;;;;;5068079;28;20097;-68
2023/08/11 11:20:28;;;;;;;2.08;1.30;;;27.40;1.00;;;;;;5067998;28;20051;-67
2023/08/11 11:22:55;;;;;;;1.60;1.27;;;27.40;1.00;;;;;;5067909;28;20060;-67
2023/08/11 11:25:21;;;;;;;1.50;1.25;;;27.40;1.00;;;;;;5068684;28;20071;-67
2023/08/11 11:27:47;;;;;;;2.40;1.60;;;27.40;1.00;;;;;;5083252;28;20044;-68
2023/08/11 11:30:13;;;;;;;1.63;1.52;;;27.40;1.00;;;;;;5067320;28;20040;-69
2023/08/11 11:32:40;;;;;;;1.38;1.27;;;27.40;1.00;;;;;;5067407;28;20079;-67
2023/08/11 11:35:07;;;;;;;7.05;1.80;;;27.30;1.00;;;;;;5082693;28;20036;-67
2023/08/11 11:37:34;;;;;;;2.17;1.30;;;27.40;1.00;;;;;;5081953;28;20495;-67
2023/08/11 11:40:04;;;;;;;2.45;1.70;;;27.30;1.00;;;;;;5066652;28;20419;-67
2023/08/11 11:42:30;;;;;;;1.55;1.40;;;27.40;1.00;;;;;;5066144;28;20052;-67
2023/08/11 11:44:58;;;;;;;1.92;1.33;;;27.30;1.00;;;;;;5067876;28;20451;-67
2023/08/11 11:47:24;;;;;;;2.47;1.23;;;27.30;1.00;;;;;;5067411;28;20079;-77
2023/08/11 11:49:57;;;;;;;2.55;1.40;;;27.20;1.00;;;;;;5068018;28;20048;-67
2023/08/11 11:52:24;;;;;;;2.28;1.08;;;27.20;1.00;;;;;;5065465;28;20120;-67
2023/08/11 11:54:54;;;;;;;1.40;1.30;;;27.20;1.00;;;;;;5066507;28;20529;-67
2023/08/11 11:57:21;;;;;;;1.02;1.02;;;27.40;1.00;;;;;;5065384;28;20487;-67
2023/08/11 11:59:49;;;;;;;2.65;1.27;;;27.50;1.00;;;;;;5066761;28;20048;-66
2023/08/11 12:02:16;;;;;;;1.45;1.35;;;27.70;1.00;;;;;;5060486;28;20060;-66
2023/08/11 12:04:45;;;;;;;2.53;1.00;;;27.60;1.00;;;;;;5066093;28;20419;-67
2023/08/11 12:07:30;;;;;;;3.78;1.20;;;27.70;1.00;;;;;;5067201;28;20048;-66
2023/08/11 12:09:56;;;;;;;2.05;1.38;;;27.70;1.00;;;;;;5056756;28;20040;-68
2023/08/11 12:12:26;;;;;;;1.10;1.00;;;27.80;1.00;;;;;;5062288;28;20608;-66
2023/08/11 12:14:53;;;;;;;1.85;1.15;;;27.80;1.00;;;;;;5067482;28;20060;-67
2023/08/11 12:17:21;;;;;;;1.55;1.20;;;27.90;1.00;;;;;;5082315;28;20045;-67
2023/08/11 12:19:47;;;;;;;1.42;0.90;;;28.00;1.00;;;;;;5067935;28;20044;-66
2023/08/11 12:22:13;;;;;;;1.17;1.10;;;28.00;1.00;;;;;;5048039;28;20111;-67
2023/08/11 12:24:39;;;;;;;1.55;1.20;;;28.00;1.00;;;;;;5066766;28;20192;-66
2023/08/11 12:27:05;;;;;;;5.15;1.40;;;28.10;1.00;;;;;;5065250;28;20106;-66
2023/08/11 12:29:31;;;;;;;2.90;1.42;;;28.10;1.00;;;;;;5066077;28;20063;-67
2023/08/11 12:31:57;;;;;;;2.42;1.20;;;28.20;1.00;;;;;;5063759;28;20113;-67
2023/08/11 12:34:23;;;;;;;1.60;1.35;;;28.10;1.00;;;;;;5065144;28;20052;-68
2023/08/11 12:36:49;;;;;;;3.30;1.08;;;28.00;1.00;;;;;;5067000;28;20170;-68
2023/08/11 12:39:15;;;;;;;2.50;1.13;;;28.00;1.00;;;;;;5065728;28;20036;-65
2023/08/11 12:41:42;;;;;;;1.42;1.02;;;28.00;1.00;;;;;;5072181;28;20048;-65
2023/08/11 12:44:07;;;;;;;1.77;1.20;;;28.00;1.00;;;;;;5074480;28;20236;-65
2023/08/11 12:46:33;;;;;;;1.92;1.38;;;27.90;1.00;;;;;;5064182;28;20102;-66
2023/08/11 12:48:59;;;;;;;2.55;1.20;;;27.80;1.00;;;;;;5064142;28;20783;-65